createdAt,value
2018-04-18T00:01:36.143Z,85.30
2018-04-18T00:04:03.723Z,85.60
2018-04-18T00:06:31.286Z,85.60
2018-04-18T00:08:58.871Z,85.60
2018-04-18T00:11:26.424Z,85.60
2018-04-18T00:13:53.998Z,85.60
2018-04-18T00:16:21.565Z,85.60
2018-04-18T00:18:49.175Z,85.40
2018-04-18T00:21:17.098Z,85.40
2018-04-18T00:23:44.680Z,85.40
2018-04-18T00:26:12.250Z,85.30
2018-04-18T00:28:39.856Z,85.40
2018-04-18T00:31:07.419Z,85.40
2018-04-18T00:33:35.060Z,85.70
2018-04-18T00:36:02.608Z,85.50
2018-04-18T00:38:30.191Z,85.10
2018-04-18T00:40:57.728Z,85.20
2018-04-18T00:43:25.346Z,85.50
2018-04-18T00:45:52.902Z,85.60
2018-04-18T00:48:20.486Z,85.70
2018-04-18T00:50:48.482Z,85.90
2018-04-18T00:53:16.095Z,85.90
2018-04-18T00:55:43.654Z,85.70
2018-04-18T00:58:11.257Z,85.80
2018-04-18T01:00:38.822Z,85.70
2018-04-18T01:03:06.449Z,85.70
2018-04-18T01:05:33.985Z,85.80
2018-04-18T01:08:01.586Z,85.80
2018-04-18T01:10:29.130Z,86.20
2018-04-18T01:12:56.707Z,85.90
2018-04-18T01:15:24.274Z,86.00
2018-04-18T01:17:51.852Z,86.30
2018-04-18T01:20:19.413Z,86.40
2018-04-18T01:22:47.026Z,86.80
2018-04-18T01:25:14.614Z,86.60
2018-04-18T01:27:42.184Z,86.50
2018-04-18T01:30:09.814Z,86.40
2018-04-18T01:32:37.361Z,86.70
2018-04-18T01:35:04.938Z,86.60
2018-04-18T01:37:32.500Z,86.50
2018-04-18T01:40:00.083Z,86.30
2018-04-18T01:42:27.631Z,86.60
2018-04-18T01:44:55.219Z,86.70
2018-04-18T01:47:22.746Z,86.70
2018-04-18T01:49:50.298Z,87.30
2018-04-18T01:52:17.837Z,87.90
2018-04-18T01:54:45.405Z,87.60
2018-04-18T01:57:12.963Z,87.30
2018-04-18T01:59:40.536Z,87.30
2018-04-18T02:02:08.099Z,87.30
2018-04-18T02:04:35.944Z,87.60
2018-04-18T02:07:03.541Z,87.70
2018-04-18T02:09:31.116Z,87.80
2018-04-18T02:11:58.673Z,87.60
2018-04-18T02:14:26.674Z,87.20
2018-04-18T02:16:54.221Z,87.20
2018-04-18T02:19:21.817Z,87.40
2018-04-18T02:21:49.405Z,87.60
2018-04-18T02:24:16.973Z,87.80
2018-04-18T02:26:44.546Z,87.90
2018-04-18T02:29:12.126Z,88.00
2018-04-18T02:31:39.692Z,87.90
2018-04-18T02:34:07.254Z,88.00
2018-04-18T02:36:34.818Z,87.70
2018-04-18T02:39:02.394Z,87.40
2018-04-18T02:41:29.933Z,87.60
2018-04-18T02:43:57.509Z,87.00
2018-04-18T02:46:25.077Z,87.00
2018-04-18T02:48:52.663Z,86.80
2018-04-18T02:51:20.206Z,87.00
2018-04-18T02:53:47.749Z,87.00
2018-04-18T02:56:15.375Z,86.80
2018-04-18T02:58:42.909Z,87.30
2018-04-18T03:01:10.498Z,87.30
2018-04-18T03:03:38.037Z,86.80
2018-04-18T03:06:05.991Z,86.80
2018-04-18T03:08:33.945Z,87.00
2018-04-18T03:11:01.590Z,87.00
2018-04-18T03:13:29.199Z,87.40
2018-04-18T03:15:56.803Z,87.60
2018-04-18T03:18:24.317Z,87.80
2018-04-18T03:20:51.884Z,88.20
2018-04-18T03:23:19.452Z,88.10
2018-04-18T03:25:47.026Z,88.70
2018-04-18T03:28:14.630Z,88.70
2018-04-18T03:30:42.198Z,88.50
2018-04-18T03:33:09.780Z,88.40
2018-04-18T03:35:37.370Z,88.70
2018-04-18T03:38:04.898Z,88.70
2018-04-18T03:40:32.472Z,88.50
2018-04-18T03:43:00.036Z,88.60
2018-04-18T03:45:27.616Z,88.80
2018-04-18T03:47:55.214Z,88.90
2018-04-18T03:50:22.762Z,88.70
2018-04-18T03:52:50.302Z,88.50
2018-04-18T03:55:17.886Z,88.50
2018-04-18T03:57:45.432Z,88.50
2018-04-18T04:00:13.048Z,88.40
2018-04-18T04:02:40.593Z,88.20
2018-04-18T04:05:08.203Z,88.40
2018-04-18T04:07:35.772Z,88.60
2018-04-18T04:10:03.378Z,88.80
2018-04-18T04:12:30.948Z,88.90
2018-04-18T04:14:58.525Z,89.30
2018-04-18T04:17:37.824Z,89.60
2018-04-18T04:20:17.183Z,89.80
2018-04-18T04:22:56.379Z,89.70
2018-04-18T04:25:23.980Z,89.30
2018-04-18T04:27:51.567Z,89.60
2018-04-18T04:30:19.185Z,89.60
2018-04-18T04:32:46.743Z,89.40
2018-04-18T04:35:14.303Z,89.10
2018-04-18T04:37:42.527Z,88.80
2018-04-18T04:40:10.386Z,88.80
2018-04-18T04:42:38.013Z,89.30
2018-04-18T04:45:05.977Z,89.50
2018-04-18T04:47:33.595Z,89.50
2018-04-18T04:50:01.125Z,88.90
2018-04-18T04:52:28.692Z,89.10
2018-04-18T04:54:56.233Z,88.80
2018-04-18T04:57:23.825Z,88.70
2018-04-18T04:59:51.358Z,88.60
2018-04-18T05:02:18.924Z,88.50
2018-04-18T05:04:46.497Z,88.60
2018-04-18T05:07:14.069Z,88.40
2018-04-18T05:09:41.612Z,88.20
2018-04-18T05:12:09.153Z,88.50
2018-04-18T05:14:36.766Z,88.80
2018-04-18T05:17:04.382Z,89.40
2018-04-18T05:19:31.957Z,89.40
2018-04-18T05:21:59.544Z,89.30
2018-04-18T05:24:27.101Z,89.10
2018-04-18T05:26:54.673Z,88.50
2018-04-18T05:29:22.232Z,88.60
2018-04-18T05:31:49.841Z,88.80
2018-04-18T05:34:17.365Z,88.60
2018-04-18T05:36:44.983Z,88.40
2018-04-18T05:39:12.533Z,88.50
2018-04-18T05:41:40.092Z,88.40
2018-04-18T05:44:07.654Z,88.40
2018-04-18T05:46:35.201Z,88.30
2018-04-18T05:49:02.798Z,87.80
2018-04-18T05:51:30.373Z,87.70
2018-04-18T05:53:57.934Z,87.60
2018-04-18T05:56:25.474Z,87.30
2018-04-18T05:58:53.085Z,87.30
2018-04-18T06:01:20.709Z,87.20
2018-04-18T06:03:48.292Z,87.10
2018-04-18T06:06:15.843Z,86.90
2018-04-18T06:08:43.463Z,86.90
2018-04-18T06:11:11.058Z,86.80
2018-04-18T06:13:38.710Z,87.10
2018-04-18T06:16:06.282Z,86.50
2018-04-18T06:18:33.895Z,86.30
2018-04-18T06:21:01.441Z,85.70
2018-04-18T06:23:29.024Z,85.30
2018-04-18T06:25:56.626Z,85.20
2018-04-18T06:28:27.785Z,85.10
2018-04-18T06:30:55.327Z,84.90
2018-04-18T06:33:22.875Z,84.80
2018-04-18T06:35:50.442Z,84.80
2018-04-18T06:38:18.187Z,84.60
2018-04-18T06:40:45.777Z,84.40
2018-04-18T06:43:13.390Z,84.00
2018-04-18T06:45:40.957Z,83.20
2018-04-18T06:48:08.564Z,83.10
2018-04-18T06:50:36.101Z,82.70
2018-04-18T06:53:03.701Z,81.60
2018-04-18T06:55:31.275Z,81.20
2018-04-18T06:57:58.824Z,81.40
2018-04-18T07:00:26.820Z,80.10
2018-04-18T07:02:54.455Z,80.10
2018-04-18T07:05:22.033Z,78.90
2018-04-18T07:07:49.649Z,78.80
2018-04-18T07:10:17.215Z,79.10
2018-04-18T07:12:44.762Z,78.70
2018-04-18T07:15:12.337Z,77.10
2018-04-18T07:17:39.916Z,76.80
2018-04-18T07:20:07.897Z,75.50
2018-04-18T07:22:35.472Z,75.50
2018-04-18T07:25:03.090Z,75.00
2018-04-18T07:27:30.630Z,74.20
2018-04-18T07:29:58.229Z,74.80
2018-04-18T07:32:25.751Z,74.40
2018-04-18T07:34:53.333Z,74.10
2018-04-18T07:37:21.250Z,72.80
2018-04-18T07:39:48.862Z,72.80
2018-04-18T07:42:16.451Z,73.10
2018-04-18T07:44:44.021Z,72.60
2018-04-18T07:47:11.561Z,73.20
2018-04-18T07:49:39.136Z,73.60
2018-04-18T07:52:06.706Z,72.70
2018-04-18T07:54:34.291Z,71.20
2018-04-18T07:57:01.824Z,71.20
2018-04-18T07:59:29.409Z,71.40
2018-04-18T08:01:57.013Z,71.40
2018-04-18T08:04:24.554Z,71.70
2018-04-18T08:06:52.105Z,72.30
2018-04-18T08:09:20.021Z,70.10
2018-04-18T08:11:47.609Z,70.10
2018-04-18T08:14:15.550Z,69.10
2018-04-18T08:16:43.139Z,69.10
2018-04-18T08:19:11.102Z,69.30
2018-04-18T08:21:38.721Z,69.30
2018-04-18T08:24:06.252Z,68.30
2018-04-18T08:26:33.805Z,66.50
2018-04-18T08:29:01.390Z,66.00
2018-04-18T08:31:28.961Z,66.60
2018-04-18T08:33:56.543Z,66.20
2018-04-18T08:36:24.094Z,65.50
2018-04-18T08:38:51.663Z,67.10
2018-04-18T08:41:19.237Z,65.90
2018-04-18T08:43:47.212Z,66.20
2018-04-18T08:46:14.795Z,66.20
2018-04-18T08:48:42.337Z,63.80
2018-04-18T08:51:09.948Z,64.50
2018-04-18T08:53:37.481Z,65.60
2018-04-18T08:56:05.059Z,62.50
2018-04-18T08:58:32.598Z,62.90
2018-04-18T09:01:00.232Z,62.00
2018-04-18T09:03:27.758Z,61.90
2018-04-18T09:05:55.346Z,61.20
2018-04-18T09:08:22.904Z,61.70
2018-04-18T09:10:50.472Z,61.70
2018-04-18T09:13:18.046Z,60.60
2018-04-18T09:15:45.633Z,61.90
2018-04-18T09:18:13.192Z,59.10
2018-04-18T09:20:40.795Z,59.20
2018-04-18T09:23:08.387Z,61.00
2018-04-18T09:25:35.931Z,61.10
2018-04-18T09:28:03.526Z,60.80
2018-04-18T09:30:31.096Z,62.80
2018-04-18T09:32:58.676Z,60.20
2018-04-18T09:35:26.660Z,62.30
2018-04-18T09:37:54.250Z,62.30
2018-04-18T09:40:21.810Z,62.30
2018-04-18T09:42:49.384Z,63.00
2018-04-18T09:45:17.008Z,57.80
2018-04-18T09:47:44.598Z,58.10
2018-04-18T09:50:12.121Z,57.40
2018-04-18T09:52:39.900Z,57.30
2018-04-18T09:55:07.445Z,57.20
2018-04-18T09:57:35.011Z,56.30
2018-04-18T10:00:02.558Z,57.80
2018-04-18T10:02:30.139Z,56.30
2018-04-18T10:05:12.298Z,55.50
2018-04-18T10:07:39.832Z,58.10
2018-04-18T10:10:07.419Z,60.20
2018-04-18T10:12:35.018Z,55.50
2018-04-18T10:15:02.589Z,56.80
2018-04-18T10:17:30.214Z,56.10
2018-04-18T10:19:57.768Z,56.40
2018-04-18T10:22:25.359Z,56.00
2018-04-18T10:24:52.941Z,55.40
2018-04-18T10:27:20.554Z,56.80
2018-04-18T10:29:48.151Z,56.20
2018-04-18T10:32:15.742Z,56.80
2018-04-18T10:34:43.361Z,56.60
2018-04-18T10:37:10.890Z,56.50
2018-04-18T10:39:38.470Z,56.30
2018-04-18T10:42:06.042Z,56.60
2018-04-18T10:44:33.699Z,56.70
2018-04-18T10:47:01.317Z,56.40
2018-04-18T10:49:28.908Z,55.10
2018-04-18T10:51:56.454Z,53.70
2018-04-18T10:54:24.049Z,55.30
2018-04-18T10:56:52.082Z,54.40
2018-04-18T10:59:19.661Z,54.40
2018-04-18T11:01:47.222Z,53.70
2018-04-18T11:04:14.810Z,55.20
2018-04-18T11:06:42.759Z,54.60
2018-04-18T11:09:10.324Z,54.60
2018-04-18T11:11:38.284Z,54.60
2018-04-18T11:14:06.344Z,57.00
2018-04-18T11:16:33.949Z,57.00
2018-04-18T11:19:01.562Z,54.20
2018-04-18T11:21:29.107Z,54.50
2018-04-18T11:23:56.861Z,54.60
2018-04-18T11:26:24.442Z,55.70
2018-04-18T11:28:52.040Z,54.60
2018-04-18T11:31:19.629Z,54.20
2018-04-18T11:33:47.247Z,56.70
2018-04-18T11:36:14.849Z,55.50
2018-04-18T11:38:42.383Z,53.70
2018-04-18T11:41:09.985Z,53.80
2018-04-18T11:43:37.800Z,54.90
2018-04-18T11:46:05.376Z,54.60
2018-04-18T11:48:32.961Z,53.00
2018-04-18T11:51:01.310Z,53.40
2018-04-18T11:53:28.903Z,53.40
2018-04-18T11:55:56.957Z,56.50
2018-04-18T11:58:24.489Z,52.50
2018-04-18T12:00:52.056Z,53.00
2018-04-18T12:03:19.578Z,54.40
2018-04-18T12:05:47.116Z,54.10
2018-04-18T12:08:15.057Z,52.60
2018-04-18T12:10:42.686Z,55.50
2018-04-18T12:13:10.242Z,53.80
2018-04-18T12:15:37.820Z,53.90
2018-04-18T12:18:05.345Z,55.20
2018-04-18T12:20:33.372Z,52.90
2018-04-18T12:23:00.976Z,52.90
2018-04-18T12:25:28.567Z,51.90
2018-04-18T12:27:56.142Z,51.20
2018-04-18T12:30:23.814Z,51.00
2018-04-18T12:32:51.360Z,53.00
2018-04-18T12:35:18.931Z,51.80
2018-04-18T12:37:46.506Z,53.20
2018-04-18T12:40:14.072Z,52.20
2018-04-18T12:42:41.669Z,51.70
2018-04-18T12:45:09.222Z,52.10
2018-04-18T12:47:36.816Z,50.50
2018-04-18T12:50:04.390Z,50.70
2018-04-18T12:52:32.018Z,51.60
2018-04-18T12:54:59.583Z,51.30
2018-04-18T12:57:27.163Z,51.70
2018-04-18T12:59:54.703Z,52.70
2018-04-18T13:02:22.343Z,51.90
2018-04-18T13:04:49.899Z,51.00
2018-04-18T13:07:17.468Z,53.00
2018-04-18T13:09:45.040Z,51.20
2018-04-18T13:12:12.660Z,52.00
2018-04-18T13:14:40.201Z,52.10
2018-04-18T13:17:08.175Z,46.80
2018-04-18T13:19:35.741Z,46.80
2018-04-18T13:22:03.320Z,48.40
2018-04-18T13:24:30.862Z,47.20
2018-04-18T13:26:58.462Z,48.20
2018-04-18T13:29:26.099Z,45.30
2018-04-18T13:31:53.673Z,45.30
2018-04-18T13:34:21.210Z,48.20
2018-04-18T13:36:48.752Z,46.20
2018-04-18T13:39:16.357Z,44.40
2018-04-18T13:41:43.944Z,42.80
2018-04-18T13:44:11.530Z,43.10
2018-04-18T13:46:39.116Z,44.50
2018-04-18T13:49:06.668Z,44.50
2018-04-18T13:51:34.262Z,43.10
2018-04-18T13:54:01.888Z,43.50
2018-04-18T13:56:29.508Z,43.10
2018-04-18T13:58:57.089Z,42.80
2018-04-18T14:01:24.642Z,44.40
2018-04-18T14:03:52.235Z,43.60
2018-04-18T14:06:20.398Z,42.80
2018-04-18T14:08:47.957Z,42.40
2018-04-18T14:11:15.508Z,43.30
2018-04-18T14:13:43.086Z,41.70
2018-04-18T14:16:10.644Z,41.20
2018-04-18T14:18:38.249Z,41.20
2018-04-18T14:21:05.785Z,41.70
2018-04-18T14:23:33.403Z,41.70
2018-04-18T14:26:01.026Z,42.50
2018-04-18T14:28:32.170Z,41.80
2018-04-18T14:31:00.116Z,41.60
2018-04-18T14:33:30.189Z,41.60
2018-04-18T14:35:58.542Z,41.90
2018-04-18T14:38:26.788Z,42.30
2018-04-18T14:40:54.344Z,41.10
2018-04-18T14:43:23.026Z,41.70
2018-04-18T14:45:51.210Z,41.30
2018-04-18T14:48:18.715Z,41.40
2018-04-18T14:50:46.363Z,40.20
2018-04-18T14:53:13.942Z,41.00
2018-04-18T14:55:42.098Z,40.80
2018-04-18T14:58:09.709Z,40.40
2018-04-18T15:00:37.313Z,40.00
2018-04-18T15:03:04.876Z,41.70
2018-04-18T15:05:32.492Z,41.10
2018-04-18T15:08:00.409Z,41.10
2018-04-18T15:10:28.258Z,41.10
2018-04-18T15:12:56.211Z,39.60
2018-04-18T15:15:24.189Z,39.70
2018-04-18T15:17:51.754Z,41.40
2018-04-18T15:20:20.543Z,40.00
2018-04-18T15:22:48.582Z,40.80
2018-04-18T15:25:18.325Z,40.10
2018-04-18T15:27:45.896Z,39.80
2018-04-18T15:30:13.482Z,40.50
2018-04-18T15:32:41.045Z,41.00
2018-04-18T15:35:08.607Z,41.10
2018-04-18T15:37:36.185Z,40.20
2018-04-18T15:40:03.855Z,40.60
2018-04-18T15:42:31.384Z,40.40
2018-04-18T15:44:59.002Z,39.90
2018-04-18T15:47:26.658Z,40.90
2018-04-18T15:49:54.229Z,41.40
2018-04-18T15:52:21.785Z,40.20
2018-04-18T15:54:49.337Z,39.90
2018-04-18T15:57:16.930Z,40.00
2018-04-18T15:59:44.510Z,40.90
2018-04-18T16:02:12.801Z,41.70
2018-04-18T16:04:40.842Z,41.70
2018-04-18T16:07:09.372Z,42.40
2018-04-18T16:09:37.432Z,41.90
2018-04-18T16:12:04.963Z,41.90
2018-04-18T16:14:32.908Z,41.00
2018-04-18T16:17:03.543Z,41.00
2018-04-18T16:19:31.157Z,41.60
2018-04-18T16:21:58.755Z,41.20
2018-04-18T16:24:26.782Z,41.60
2018-04-18T16:26:55.223Z,42.20
2018-04-18T16:29:35.193Z,41.60
2018-04-18T16:32:02.975Z,41.60
2018-04-18T16:34:30.549Z,41.80
2018-04-18T16:36:58.148Z,42.50
2018-04-18T16:39:26.145Z,42.90
2018-04-18T16:41:53.944Z,42.90
2018-04-18T16:44:21.585Z,42.80
2018-04-18T16:46:49.192Z,43.00
2018-04-18T16:49:18.025Z,43.10
2018-04-18T16:51:45.665Z,43.10
2018-04-18T16:54:13.294Z,42.50
2018-04-18T16:56:40.843Z,43.30
2018-04-18T16:59:08.446Z,43.50
2018-04-18T17:01:36.026Z,43.50
2018-04-18T17:04:03.573Z,44.50
2018-04-18T17:06:31.239Z,44.20
2018-04-18T17:08:58.839Z,43.70
2018-04-18T17:11:27.355Z,44.20
2018-04-18T17:13:54.938Z,44.30
2018-04-18T17:16:22.627Z,44.30
2018-04-18T17:18:51.213Z,44.80
2018-04-18T17:21:19.153Z,44.50
2018-04-18T17:23:47.224Z,44.70
2018-04-18T17:26:14.803Z,45.40
2018-04-18T17:28:42.513Z,44.90
2018-04-18T17:31:10.305Z,44.70
2018-04-18T17:33:37.971Z,45.00
2018-04-18T17:36:05.917Z,45.90
2018-04-18T17:38:33.477Z,46.40
2018-04-18T17:41:01.114Z,47.00
2018-04-18T17:43:28.783Z,47.30
2018-04-18T17:45:56.322Z,47.90
2018-04-18T17:48:23.930Z,49.20
2018-04-18T17:50:51.463Z,49.70
2018-04-18T17:53:19.040Z,50.70
2018-04-18T17:55:46.575Z,51.80
2018-04-18T17:58:14.164Z,52.50
2018-04-18T18:00:41.704Z,53.00
2018-04-18T18:03:09.302Z,53.70
2018-04-18T18:05:36.836Z,53.80
2018-04-18T18:08:04.423Z,54.10
2018-04-18T18:10:32.009Z,54.80
2018-04-18T18:13:00.550Z,55.50
2018-04-18T18:15:28.137Z,56.10
2018-04-18T18:17:55.695Z,55.70
2018-04-18T18:20:23.490Z,56.30
2018-04-18T18:22:51.086Z,56.40
2018-04-18T18:25:18.707Z,57.20
2018-04-18T18:27:46.246Z,57.60
2018-04-18T18:30:13.831Z,57.70
2018-04-18T18:32:41.413Z,58.00
2018-04-18T18:35:08.986Z,58.00
2018-04-18T18:37:36.505Z,58.50
2018-04-18T18:40:04.095Z,58.80
2018-04-18T18:42:31.628Z,58.80
2018-04-18T18:44:59.211Z,59.00
2018-04-18T18:47:26.743Z,59.40
2018-04-18T18:49:54.337Z,59.70
2018-04-18T18:52:21.938Z,60.20
2018-04-18T18:54:49.544Z,60.20
2018-04-18T18:57:17.109Z,60.80
2018-04-18T18:59:44.677Z,61.40
2018-04-18T19:02:12.210Z,62.10
2018-04-18T19:04:39.844Z,62.30
2018-04-18T19:07:07.441Z,62.60
2018-04-18T19:09:35.091Z,62.50
2018-04-18T19:12:02.617Z,62.40
2018-04-18T19:14:30.262Z,62.70
2018-04-18T19:16:58.292Z,63.40
2018-04-18T19:19:26.049Z,63.40
2018-04-18T19:21:53.614Z,63.80
2018-04-18T19:24:21.238Z,63.80
2018-04-18T19:26:48.808Z,63.60
2018-04-18T19:29:16.415Z,63.90
2018-04-18T19:31:43.959Z,64.10
2018-04-18T19:34:11.550Z,64.50
2018-04-18T19:36:39.093Z,64.60
2018-04-18T19:39:06.647Z,65.00
2018-04-18T19:41:34.296Z,65.40
2018-04-18T19:44:01.818Z,65.50
2018-04-18T19:46:29.381Z,66.40
2018-04-18T19:48:56.913Z,67.00
2018-04-18T19:51:24.532Z,66.60
2018-04-18T19:53:55.730Z,67.00
2018-04-18T19:56:23.292Z,67.60
2018-04-18T19:58:51.266Z,68.30
2018-04-18T20:01:18.930Z,68.50
2018-04-18T20:03:46.469Z,68.40
2018-04-18T20:06:14.897Z,68.40
2018-04-18T20:08:42.734Z,68.90
2018-04-18T20:11:10.329Z,69.20
2018-04-18T20:13:37.861Z,69.30
2018-04-18T20:16:05.450Z,69.30
2018-04-18T20:18:33.443Z,69.30
2018-04-18T20:21:01.053Z,69.30
2018-04-18T20:23:28.598Z,69.30
2018-04-18T20:25:56.272Z,69.70
2018-04-18T20:28:23.872Z,70.10
2018-04-18T20:30:51.389Z,70.90
2018-04-18T20:33:18.922Z,71.00
2018-04-18T20:35:46.511Z,71.40
2018-04-18T20:38:14.130Z,71.30
2018-04-18T20:40:41.695Z,71.40
2018-04-18T20:43:09.257Z,71.40
2018-04-18T20:45:36.854Z,71.30
2018-04-18T20:48:04.422Z,71.50
2018-04-18T20:50:32.036Z,71.90
2018-04-18T20:52:59.548Z,72.10
2018-04-18T20:55:27.185Z,72.50
2018-04-18T20:57:54.673Z,72.70
2018-04-18T21:00:22.259Z,73.10
2018-04-18T21:02:49.817Z,73.40
2018-04-18T21:05:17.422Z,73.40
2018-04-18T21:07:45.055Z,73.70
2018-04-18T21:10:12.625Z,73.50
2018-04-18T21:12:40.200Z,73.70
2018-04-18T21:15:07.754Z,73.60
2018-04-18T21:17:35.344Z,74.30
2018-04-18T21:20:02.878Z,73.70
2018-04-18T21:22:30.513Z,74.20
2018-04-18T21:24:58.083Z,74.50
2018-04-18T21:27:25.708Z,75.30
2018-04-18T21:29:53.263Z,75.70
2018-04-18T21:32:20.930Z,75.80
2018-04-18T21:34:48.518Z,75.50
2018-04-18T21:37:16.089Z,75.70
2018-04-18T21:39:43.741Z,76.20
2018-04-18T21:42:12.015Z,76.60
2018-04-18T21:44:39.604Z,76.70
2018-04-18T21:47:07.166Z,76.90
2018-04-18T21:49:35.113Z,77.20
2018-04-18T21:52:02.750Z,77.20
2018-04-18T21:54:30.326Z,77.20
2018-04-18T21:56:57.913Z,77.60
2018-04-18T21:59:25.472Z,77.60
2018-04-18T22:01:53.089Z,77.80
2018-04-18T22:04:20.671Z,77.80
2018-04-18T22:06:48.241Z,78.20
2018-04-18T22:09:15.838Z,78.60
2018-04-18T22:11:43.406Z,78.80
2018-04-18T22:14:11.001Z,78.70
2018-04-18T22:16:38.587Z,78.70
2018-04-18T22:19:06.158Z,79.10
2018-04-18T22:21:33.724Z,79.20
2018-04-18T22:24:01.374Z,79.80
2018-04-18T22:26:28.959Z,79.30
2018-04-18T22:28:56.569Z,79.80
2018-04-18T22:31:24.167Z,79.60
2018-04-18T22:33:51.763Z,80.00
2018-04-18T22:36:19.306Z,80.30
2018-04-18T22:38:46.921Z,80.60
2018-04-18T22:41:14.480Z,80.00
2018-04-18T22:43:42.087Z,80.20
2018-04-18T22:46:09.610Z,80.50
2018-04-18T22:48:37.181Z,80.60
2018-04-18T22:51:04.729Z,81.20
2018-04-18T22:53:32.380Z,80.90
2018-04-18T22:55:59.935Z,80.90
2018-04-18T22:58:27.543Z,80.50
2018-04-18T23:00:55.107Z,80.90
2018-04-18T23:03:22.693Z,80.80
2018-04-18T23:05:50.286Z,81.20
2018-04-18T23:08:17.862Z,80.90
2018-04-18T23:10:45.401Z,81.10
2018-04-18T23:13:12.976Z,81.00
2018-04-18T23:15:40.533Z,81.20
2018-04-18T23:18:08.109Z,81.90
2018-04-18T23:20:35.683Z,81.90
2018-04-18T23:23:03.210Z,82.20
2018-04-18T23:25:30.823Z,82.30
2018-04-18T23:27:58.400Z,82.30
2018-04-18T23:30:25.932Z,82.40
2018-04-18T23:32:53.497Z,82.70
2018-04-18T23:35:21.087Z,82.60
2018-04-18T23:37:48.610Z,82.30
2018-04-18T23:40:16.195Z,82.30
2018-04-18T23:42:43.776Z,82.50
2018-04-18T23:45:11.301Z,82.50
2018-04-18T23:47:38.870Z,82.70
2018-04-18T23:50:06.417Z,82.70
2018-04-18T23:52:33.992Z,82.70
2018-04-18T23:55:01.598Z,82.60
2018-04-18T23:57:29.141Z,82.60
2018-04-18T23:59:56.716Z,82.80
